sensor_id;sensor_type;location;lat;lon;timestamp;P1;durP1;ratioP1;P2;durP2;ratioP2
33381;SDS011;21342;48.786;9.166;2022-09-12T00:01:18;8.83;;;7.63;;
33381;SDS011;21342;48.786;9.166;2022-09-12T00:03:46;9.70;;;8.80;;
33381;SDS011;21342;48.786;9.166;2022-09-12T00:06:16;11.07;;;9.97;;
33381;SDS011;21342;48.786;9.166;2022-09-12T00:08:44;8.77;;;7.87;;
33381;SDS011;21342;48.786;9.166;2022-09-12T00:11:12;10.13;;;8.67;;
33381;SDS011;21342;48.786;9.166;2022-09-12T00:13:40;9.53;;;8.63;;
33381;SDS011;21342;48.786;9.166;2022-09-12T00:16:13;10.60;;;9.33;;
33381;SDS011;21342;48.786;9.166;2022-09-12T00:18:42;8.80;;;8.00;;
33381;SDS011;21342;48.786;9.166;2022-09-12T00:21:10;9.90;;;8.70;;
33381;SDS011;21342;48.786;9.166;2022-09-12T00:23:39;9.63;;;8.63;;
33381;SDS011;21342;48.786;9.166;2022-09-12T00:26:06;9.30;;;8.50;;
33381;SDS011;21342;48.786;9.166;2022-09-12T00:28:34;10.67;;;9.00;;
33381;SDS011;21342;48.786;9.166;2022-09-12T00:31:03;10.27;;;8.53;;
33381;SDS011;21342;48.786;9.166;2022-09-12T00:33:31;8.50;;;7.70;;
33381;SDS011;21342;48.786;9.166;2022-09-12T00:36:02;9.83;;;8.83;;
33381;SDS011;21342;48.786;9.166;2022-09-12T00:38:30;9.20;;;8.30;;
33381;SDS011;21342;48.786;9.166;2022-09-12T00:40:59;8.90;;;8.00;;
33381;SDS011;21342;48.786;9.166;2022-09-12T00:43:33;9.60;;;8.70;;
33381;SDS011;21342;48.786;9.166;2022-09-12T00:46:03;9.47;;;8.60;;
33381;SDS011;21342;48.786;9.166;2022-09-12T00:48:37;8.90;;;8.10;;
33381;SDS011;21342;48.786;9.166;2022-09-12T00:51:07;9.27;;;8.30;;
33381;SDS011;21342;48.786;9.166;2022-09-12T00:53:35;9.97;;;9.07;;
33381;SDS011;21342;48.786;9.166;2022-09-12T00:56:04;8.57;;;7.70;;
33381;SDS011;21342;48.786;9.166;2022-09-12T00:58:34;9.50;;;8.63;;
33381;SDS011;21342;48.786;9.166;2022-09-12T01:01:05;10.20;;;9.30;;
33381;SDS011;21342;48.786;9.166;2022-09-12T01:03:32;11.30;;;8.60;;
33381;SDS011;21342;48.786;9.166;2022-09-12T01:06:01;8.30;;;7.60;;
33381;SDS011;21342;48.786;9.166;2022-09-12T01:08:34;8.70;;;7.90;;
33381;SDS011;21342;48.786;9.166;2022-09-12T01:11:03;10.20;;;9.00;;
33381;SDS011;21342;48.786;9.166;2022-09-12T01:13:33;9.63;;;8.63;;
33381;SDS011;21342;48.786;9.166;2022-09-12T01:16:02;8.67;;;7.87;;
33381;SDS011;21342;48.786;9.166;2022-09-12T01:18:31;9.00;;;8.10;;
33381;SDS011;21342;48.786;9.166;2022-09-12T01:21:10;9.83;;;8.93;;
33381;SDS011;21342;48.786;9.166;2022-09-12T01:26:58;8.67;;;7.87;;
33381;SDS011;21342;48.786;9.166;2022-09-12T01:32:57;12.57;;;8.67;;
33381;SDS011;21342;48.786;9.166;2022-09-12T01:35:34;10.77;;;9.67;;
33381;SDS011;21342;48.786;9.166;2022-09-12T01:38:18;10.10;;;9.10;;
33381;SDS011;21342;48.786;9.166;2022-09-12T01:40:51;10.43;;;8.70;;
33381;SDS011;21342;48.786;9.166;2022-09-12T01:43:29;8.90;;;7.70;;
33381;SDS011;21342;48.786;9.166;2022-09-12T01:46:03;10.33;;;9.37;;
33381;SDS011;21342;48.786;9.166;2022-09-12T01:48:37;10.03;;;8.90;;
33381;SDS011;21342;48.786;9.166;2022-09-12T01:51:11;12.80;;;8.57;;
33381;SDS011;21342;48.786;9.166;2022-09-12T01:53:43;9.03;;;8.13;;
33381;SDS011;21342;48.786;9.166;2022-09-12T01:56:14;9.77;;;8.97;;
33381;SDS011;21342;48.786;9.166;2022-09-12T01:58:47;9.57;;;8.67;;
33381;SDS011;21342;48.786;9.166;2022-09-12T02:01:19;9.33;;;7.80;;
33381;SDS011;21342;48.786;9.166;2022-09-12T02:03:50;8.47;;;7.77;;
33381;SDS011;21342;48.786;9.166;2022-09-12T02:06:26;9.70;;;8.80;;
33381;SDS011;21342;48.786;9.166;2022-09-12T02:08:58;10.43;;;9.33;;
33381;SDS011;21342;48.786;9.166;2022-09-12T02:11:30;15.90;;;8.50;;
33381;SDS011;21342;48.786;9.166;2022-09-12T02:14:02;9.87;;;8.87;;
33381;SDS011;21342;48.786;9.166;2022-09-12T02:16:33;11.67;;;10.43;;
33381;SDS011;21342;48.786;9.166;2022-09-12T02:19:06;11.63;;;8.73;;
33381;SDS011;21342;48.786;9.166;2022-09-12T02:21:35;9.50;;;8.67;;
33381;SDS011;21342;48.786;9.166;2022-09-12T02:24:06;8.90;;;8.00;;
33381;SDS011;21342;48.786;9.166;2022-09-12T02:26:36;9.87;;;8.97;;
33381;SDS011;21342;48.786;9.166;2022-09-12T02:29:09;11.30;;;9.50;;
33381;SDS011;21342;48.786;9.166;2022-09-12T02:31:39;9.60;;;8.70;;
33381;SDS011;21342;48.786;9.166;2022-09-12T02:34:15;9.60;;;8.60;;
33381;SDS011;21342;48.786;9.166;2022-09-12T02:36:54;10.13;;;9.13;;
33381;SDS011;21342;48.786;9.166;2022-09-12T02:39:31;10.70;;;9.10;;
33381;SDS011;21342;48.786;9.166;2022-09-12T02:41:59;10.07;;;8.97;;
33381;SDS011;21342;48.786;9.166;2022-09-12T02:44:28;8.27;;;7.57;;
33381;SDS011;21342;48.786;9.166;2022-09-12T02:46:57;9.90;;;8.90;;
33381;SDS011;21342;48.786;9.166;2022-09-12T02:49:31;10.73;;;9.67;;
33381;SDS011;21342;48.786;9.166;2022-09-12T02:51:58;11.20;;;10.17;;
33381;SDS011;21342;48.786;9.166;2022-09-12T02:54:27;11.13;;;10.13;;
33381;SDS011;21342;48.786;9.166;2022-09-12T02:56:55;12.70;;;9.97;;
33381;SDS011;21342;48.786;9.166;2022-09-12T02:59:22;11.00;;;9.90;;
33381;SDS011;21342;48.786;9.166;2022-09-12T03:02:00;10.43;;;9.37;;
33381;SDS011;21342;48.786;9.166;2022-09-12T03:04:46;9.50;;;8.60;;
33381;SDS011;21342;48.786;9.166;2022-09-12T03:07:47;11.37;;;10.30;;
33381;SDS011;21342;48.786;9.166;2022-09-12T03:10:32;11.33;;;9.87;;
33381;SDS011;21342;48.786;9.166;2022-09-12T03:13:08;10.77;;;9.67;;
33381;SDS011;21342;48.786;9.166;2022-09-12T03:15:48;9.10;;;8.30;;
33381;SDS011;21342;48.786;9.166;2022-09-12T03:18:27;9.80;;;8.90;;
33381;SDS011;21342;48.786;9.166;2022-09-12T03:21:06;10.10;;;9.00;;
33381;SDS011;21342;48.786;9.166;2022-09-12T03:23:41;10.30;;;9.30;;
33381;SDS011;21342;48.786;9.166;2022-09-12T03:26:12;10.63;;;9.60;;
33381;SDS011;21342;48.786;9.166;2022-09-12T03:28:45;10.40;;;9.30;;
33381;SDS011;21342;48.786;9.166;2022-09-12T03:31:16;9.90;;;9.10;;
33381;SDS011;21342;48.786;9.166;2022-09-12T03:33:44;10.37;;;9.37;;
33381;SDS011;21342;48.786;9.166;2022-09-12T03:36:15;9.57;;;8.77;;
33381;SDS011;21342;48.786;9.166;2022-09-12T03:38:45;11.93;;;10.43;;
33381;SDS011;21342;48.786;9.166;2022-09-12T03:41:12;12.17;;;10.00;;
33381;SDS011;21342;48.786;9.166;2022-09-12T03:43:39;12.27;;;10.40;;
33381;SDS011;21342;48.786;9.166;2022-09-12T03:46:06;10.63;;;9.53;;
33381;SDS011;21342;48.786;9.166;2022-09-12T03:48:33;10.53;;;9.13;;
33381;SDS011;21342;48.786;9.166;2022-09-12T03:51:01;10.20;;;9.20;;
33381;SDS011;21342;48.786;9.166;2022-09-12T03:53:30;10.33;;;9.23;;
33381;SDS011;21342;48.786;9.166;2022-09-12T03:55:57;12.20;;;9.93;;
33381;SDS011;21342;48.786;9.166;2022-09-12T03:58:28;11.43;;;9.20;;
33381;SDS011;21342;48.786;9.166;2022-09-12T04:00:56;12.83;;;9.00;;
33381;SDS011;21342;48.786;9.166;2022-09-12T04:03:24;10.93;;;9.83;;
33381;SDS011;21342;48.786;9.166;2022-09-12T04:05:51;9.67;;;8.80;;
33381;SDS011;21342;48.786;9.166;2022-09-12T04:08:18;10.00;;;9.10;;
33381;SDS011;21342;48.786;9.166;2022-09-12T04:10:47;12.60;;;10.67;;
33381;SDS011;21342;48.786;9.166;2022-09-12T04:13:14;12.67;;;11.37;;
33381;SDS011;21342;48.786;9.166;2022-09-12T04:15:41;11.23;;;10.13;;
33381;SDS011;21342;48.786;9.166;2022-09-12T04:18:08;10.70;;;9.60;;
33381;SDS011;21342;48.786;9.166;2022-09-12T04:20:35;10.90;;;9.40;;
33381;SDS011;21342;48.786;9.166;2022-09-12T04:23:02;11.27;;;10.17;;
33381;SDS011;21342;48.786;9.166;2022-09-12T04:25:30;11.03;;;9.40;;
33381;SDS011;21342;48.786;9.166;2022-09-12T04:27:58;14.70;;;10.27;;
33381;SDS011;21342;48.786;9.166;2022-09-12T04:30:25;10.73;;;9.07;;
33381;SDS011;21342;48.786;9.166;2022-09-12T04:32:52;10.13;;;9.13;;
33381;SDS011;21342;48.786;9.166;2022-09-12T04:35:19;10.83;;;9.73;;
33381;SDS011;21342;48.786;9.166;2022-09-12T04:37:47;15.13;;;10.90;;
33381;SDS011;21342;48.786;9.166;2022-09-12T04:40:14;15.43;;;10.70;;
33381;SDS011;21342;48.786;9.166;2022-09-12T04:42:42;14.73;;;10.17;;
33381;SDS011;21342;48.786;9.166;2022-09-12T04:45:11;11.37;;;10.20;;
33381;SDS011;21342;48.786;9.166;2022-09-12T04:47:38;13.03;;;11.60;;
33381;SDS011;21342;48.786;9.166;2022-09-12T04:50:06;11.93;;;10.73;;
33381;SDS011;21342;48.786;9.166;2022-09-12T04:52:33;11.07;;;9.93;;
33381;SDS011;21342;48.786;9.166;2022-09-12T04:55:00;12.83;;;11.50;;
33381;SDS011;21342;48.786;9.166;2022-09-12T04:57:28;11.80;;;10.70;;
33381;SDS011;21342;48.786;9.166;2022-09-12T04:59:55;12.73;;;11.30;;
33381;SDS011;21342;48.786;9.166;2022-09-12T05:02:24;11.27;;;9.97;;
33381;SDS011;21342;48.786;9.166;2022-09-12T05:04:51;14.43;;;11.30;;
33381;SDS011;21342;48.786;9.166;2022-09-12T05:07:18;15.17;;;11.90;;
33381;SDS011;21342;48.786;9.166;2022-09-12T05:09:45;13.10;;;11.50;;
33381;SDS011;21342;48.786;9.166;2022-09-12T05:12:12;11.97;;;10.30;;
33381;SDS011;21342;48.786;9.166;2022-09-12T05:14:39;12.70;;;10.27;;
33381;SDS011;21342;48.786;9.166;2022-09-12T05:17:07;14.83;;;11.00;;
33381;SDS011;21342;48.786;9.166;2022-09-12T05:19:35;13.50;;;11.50;;
33381;SDS011;21342;48.786;9.166;2022-09-12T05:22:03;11.87;;;10.50;;
33381;SDS011;21342;48.786;9.166;2022-09-12T05:24:31;11.07;;;9.90;;
33381;SDS011;21342;48.786;9.166;2022-09-12T05:26:59;13.53;;;10.60;;
33381;SDS011;21342;48.786;9.166;2022-09-12T05:29:27;14.23;;;10.63;;
33381;SDS011;21342;48.786;9.166;2022-09-12T05:31:54;11.50;;;10.20;;
33381;SDS011;21342;48.786;9.166;2022-09-12T05:34:22;11.93;;;10.67;;
33381;SDS011;21342;48.786;9.166;2022-09-12T05:36:50;12.70;;;10.80;;
33381;SDS011;21342;48.786;9.166;2022-09-12T05:39:17;12.23;;;10.93;;
33381;SDS011;21342;48.786;9.166;2022-09-12T05:41:45;12.13;;;10.83;;
33381;SDS011;21342;48.786;9.166;2022-09-12T05:44:12;12.33;;;11.10;;
33381;SDS011;21342;48.786;9.166;2022-09-12T05:46:41;10.47;;;9.47;;
33381;SDS011;21342;48.786;9.166;2022-09-12T05:49:10;11.80;;;10.57;;
33381;SDS011;21342;48.786;9.166;2022-09-12T05:51:39;12.40;;;11.10;;
33381;SDS011;21342;48.786;9.166;2022-09-12T05:54:14;13.40;;;10.63;;
33381;SDS011;21342;48.786;9.166;2022-09-12T05:56:43;14.17;;;11.03;;
33381;SDS011;21342;48.786;9.166;2022-09-12T05:59:12;14.80;;;10.67;;
33381;SDS011;21342;48.786;9.166;2022-09-12T06:01:40;12.13;;;10.93;;
33381;SDS011;21342;48.786;9.166;2022-09-12T06:04:08;11.73;;;10.30;;
33381;SDS011;21342;48.786;9.166;2022-09-12T06:06:36;14.43;;;12.27;;
33381;SDS011;21342;48.786;9.166;2022-09-12T06:09:05;13.17;;;11.20;;
33381;SDS011;21342;48.786;9.166;2022-09-12T06:11:35;12.03;;;10.77;;
33381;SDS011;21342;48.786;9.166;2022-09-12T06:14:05;15.40;;;10.70;;
33381;SDS011;21342;48.786;9.166;2022-09-12T06:16:34;14.90;;;12.53;;
33381;SDS011;21342;48.786;9.166;2022-09-12T06:19:03;13.73;;;12.47;;
33381;SDS011;21342;48.786;9.166;2022-09-12T06:21:31;14.57;;;12.63;;
33381;SDS011;21342;48.786;9.166;2022-09-12T06:23:59;14.30;;;11.33;;
33381;SDS011;21342;48.786;9.166;2022-09-12T06:26:27;13.83;;;11.10;;
33381;SDS011;21342;48.786;9.166;2022-09-12T06:28:56;17.97;;;11.10;;
33381;SDS011;21342;48.786;9.166;2022-09-12T06:31:25;14.03;;;11.60;;
33381;SDS011;21342;48.786;9.166;2022-09-12T06:33:54;11.50;;;10.40;;
33381;SDS011;21342;48.786;9.166;2022-09-12T06:36:22;13.17;;;11.77;;
33381;SDS011;21342;48.786;9.166;2022-09-12T06:38:54;14.00;;;12.33;;
33381;SDS011;21342;48.786;9.166;2022-09-12T06:41:22;14.00;;;11.80;;
33381;SDS011;21342;48.786;9.166;2022-09-12T06:43:51;13.77;;;12.27;;
33381;SDS011;21342;48.786;9.166;2022-09-12T06:46:20;13.50;;;12.10;;
33381;SDS011;21342;48.786;9.166;2022-09-12T06:48:48;16.77;;;12.40;;
33381;SDS011;21342;48.786;9.166;2022-09-12T06:51:16;16.10;;;12.83;;
33381;SDS011;21342;48.786;9.166;2022-09-12T06:53:44;13.40;;;11.43;;
33381;SDS011;21342;48.786;9.166;2022-09-12T06:56:12;12.30;;;11.13;;
33381;SDS011;21342;48.786;9.166;2022-09-12T06:58:40;12.20;;;10.73;;
33381;SDS011;21342;48.786;9.166;2022-09-12T07:01:09;14.57;;;12.60;;
33381;SDS011;21342;48.786;9.166;2022-09-12T07:03:39;12.17;;;10.93;;
33381;SDS011;21342;48.786;9.166;2022-09-12T07:06:07;14.60;;;10.30;;
33381;SDS011;21342;48.786;9.166;2022-09-12T07:08:35;13.53;;;11.80;;
33381;SDS011;21342;48.786;9.166;2022-09-12T07:11:10;11.97;;;9.50;;
33381;SDS011;21342;48.786;9.166;2022-09-12T07:13:40;11.60;;;10.03;;
33381;SDS011;21342;48.786;9.166;2022-09-12T07:16:08;12.30;;;11.10;;
33381;SDS011;21342;48.786;9.166;2022-09-12T07:18:36;13.07;;;11.50;;
33381;SDS011;21342;48.786;9.166;2022-09-12T07:21:06;16.80;;;12.73;;
33381;SDS011;21342;48.786;9.166;2022-09-12T07:23:35;11.90;;;10.70;;
33381;SDS011;21342;48.786;9.166;2022-09-12T07:26:04;13.67;;;11.13;;
33381;SDS011;21342;48.786;9.166;2022-09-12T07:28:32;13.67;;;12.20;;
33381;SDS011;21342;48.786;9.166;2022-09-12T07:31:03;15.50;;;11.90;;
33381;SDS011;21342;48.786;9.166;2022-09-12T07:33:31;11.43;;;9.60;;
33381;SDS011;21342;48.786;9.166;2022-09-12T07:36:01;13.43;;;10.53;;
33381;SDS011;21342;48.786;9.166;2022-09-12T07:38:29;12.00;;;9.80;;
33381;SDS011;21342;48.786;9.166;2022-09-12T07:40:57;13.53;;;11.77;;
33381;SDS011;21342;48.786;9.166;2022-09-12T07:43:25;10.10;;;7.90;;
33381;SDS011;21342;48.786;9.166;2022-09-12T07:45:55;12.80;;;9.53;;
33381;SDS011;21342;48.786;9.166;2022-09-12T07:48:22;11.87;;;9.93;;
33381;SDS011;21342;48.786;9.166;2022-09-12T07:50:56;14.03;;;11.10;;
33381;SDS011;21342;48.786;9.166;2022-09-12T07:53:26;8.60;;;7.70;;
33381;SDS011;21342;48.786;9.166;2022-09-12T07:55:56;10.77;;;9.70;;
33381;SDS011;21342;48.786;9.166;2022-09-12T07:58:23;12.73;;;9.67;;
33381;SDS011;21342;48.786;9.166;2022-09-12T08:00:51;13.17;;;9.40;;
33381;SDS011;21342;48.786;9.166;2022-09-12T08:03:18;10.83;;;9.83;;
33381;SDS011;21342;48.786;9.166;2022-09-12T08:05:45;10.20;;;9.20;;
33381;SDS011;21342;48.786;9.166;2022-09-12T08:08:12;10.73;;;9.43;;
33381;SDS011;21342;48.786;9.166;2022-09-12T08:10:41;9.83;;;8.80;;
33381;SDS011;21342;48.786;9.166;2022-09-12T08:13:08;11.53;;;8.47;;
33381;SDS011;21342;48.786;9.166;2022-09-12T08:15:36;9.83;;;8.73;;
33381;SDS011;21342;48.786;9.166;2022-09-12T08:18:03;10.77;;;7.93;;
33381;SDS011;21342;48.786;9.166;2022-09-12T08:20:30;16.23;;;9.10;;
33381;SDS011;21342;48.786;9.166;2022-09-12T08:22:57;11.63;;;9.60;;
33381;SDS011;21342;48.786;9.166;2022-09-12T08:25:25;11.43;;;7.70;;
33381;SDS011;21342;48.786;9.166;2022-09-12T08:27:54;8.07;;;7.37;;
33381;SDS011;21342;48.786;9.166;2022-09-12T08:30:21;10.53;;;9.47;;
33381;SDS011;21342;48.786;9.166;2022-09-12T08:32:48;9.10;;;8.17;;
33381;SDS011;21342;48.786;9.166;2022-09-12T08:35:15;11.53;;;8.67;;
33381;SDS011;21342;48.786;9.166;2022-09-12T08:37:42;9.83;;;6.93;;
33381;SDS011;21342;48.786;9.166;2022-09-12T08:40:13;8.20;;;7.37;;
33381;SDS011;21342;48.786;9.166;2022-09-12T08:42:51;10.73;;;8.13;;
33381;SDS011;21342;48.786;9.166;2022-09-12T08:45:28;7.17;;;6.43;;
33381;SDS011;21342;48.786;9.166;2022-09-12T08:48:02;8.63;;;7.30;;
33381;SDS011;21342;48.786;9.166;2022-09-12T08:50:31;10.40;;;8.20;;
33381;SDS011;21342;48.786;9.166;2022-09-12T08:52:59;6.40;;;5.80;;
33381;SDS011;21342;48.786;9.166;2022-09-12T08:55:30;6.93;;;6.30;;
33381;SDS011;21342;48.786;9.166;2022-09-12T08:58:01;7.00;;;6.40;;
33381;SDS011;21342;48.786;9.166;2022-09-12T09:00:37;7.97;;;7.17;;
33381;SDS011;21342;48.786;9.166;2022-09-12T09:03:19;5.50;;;4.47;;
33381;SDS011;21342;48.786;9.166;2022-09-12T09:06:04;4.50;;;4.10;;
33381;SDS011;21342;48.786;9.166;2022-09-12T09:08:49;5.43;;;4.93;;
33381;SDS011;21342;48.786;9.166;2022-09-12T09:11:25;6.80;;;5.43;;
33381;SDS011;21342;48.786;9.166;2022-09-12T09:14:13;5.60;;;5.10;;
33381;SDS011;21342;48.786;9.166;2022-09-12T09:17:00;5.57;;;5.00;;
33381;SDS011;21342;48.786;9.166;2022-09-12T09:19:29;4.37;;;4.00;;
33381;SDS011;21342;48.786;9.166;2022-09-12T09:22:02;5.10;;;4.60;;
33381;SDS011;21342;48.786;9.166;2022-09-12T09:24:33;6.90;;;5.60;;
33381;SDS011;21342;48.786;9.166;2022-09-12T09:27:05;11.27;;;5.70;;
33381;SDS011;21342;48.786;9.166;2022-09-12T09:29:42;4.20;;;3.90;;
33381;SDS011;21342;48.786;9.166;2022-09-12T09:32:14;4.77;;;4.37;;
33381;SDS011;21342;48.786;9.166;2022-09-12T09:34:44;4.67;;;4.27;;
33381;SDS011;21342;48.786;9.166;2022-09-12T09:37:14;5.03;;;3.90;;
33381;SDS011;21342;48.786;9.166;2022-09-12T09:39:48;4.40;;;4.00;;
33381;SDS011;21342;48.786;9.166;2022-09-12T09:42:26;4.23;;;3.93;;
33381;SDS011;21342;48.786;9.166;2022-09-12T09:45:09;3.80;;;3.50;;
33381;SDS011;21342;48.786;9.166;2022-09-12T09:47:39;5.53;;;4.13;;
33381;SDS011;21342;48.786;9.166;2022-09-12T09:50:08;6.40;;;3.60;;
33381;SDS011;21342;48.786;9.166;2022-09-12T09:52:42;3.80;;;3.50;;
33381;SDS011;21342;48.786;9.166;2022-09-12T09:55:11;5.87;;;4.60;;
33381;SDS011;21342;48.786;9.166;2022-09-12T09:57:46;3.90;;;3.60;;
33381;SDS011;21342;48.786;9.166;2022-09-12T10:00:25;3.57;;;3.20;;
33381;SDS011;21342;48.786;9.166;2022-09-12T10:05:58;3.47;;;3.17;;
33381;SDS011;21342;48.786;9.166;2022-09-12T10:08:27;3.80;;;3.50;;
33381;SDS011;21342;48.786;9.166;2022-09-12T10:10:57;6.17;;;3.07;;
33381;SDS011;21342;48.786;9.166;2022-09-12T10:13:29;3.13;;;2.93;;
33381;SDS011;21342;48.786;9.166;2022-09-12T10:16:15;3.33;;;3.10;;
33381;SDS011;21342;48.786;9.166;2022-09-12T10:18:44;6.23;;;3.10;;
33381;SDS011;21342;48.786;9.166;2022-09-12T10:21:20;2.97;;;2.70;;
33381;SDS011;21342;48.786;9.166;2022-09-12T10:23:57;2.83;;;2.63;;
33381;SDS011;21342;48.786;9.166;2022-09-12T10:26:30;2.90;;;2.70;;
33381;SDS011;21342;48.786;9.166;2022-09-12T10:29:02;3.57;;;2.87;;
33381;SDS011;21342;48.786;9.166;2022-09-12T10:31:42;3.20;;;3.00;;
33381;SDS011;21342;48.786;9.166;2022-09-12T10:34:20;4.73;;;2.70;;
33381;SDS011;21342;48.786;9.166;2022-09-12T10:36:58;3.00;;;2.80;;
33381;SDS011;21342;48.786;9.166;2022-09-12T10:39:28;2.70;;;2.50;;
33381;SDS011;21342;48.786;9.166;2022-09-12T10:41:56;2.80;;;2.60;;
33381;SDS011;21342;48.786;9.166;2022-09-12T10:44:24;3.30;;;3.00;;
33381;SDS011;21342;48.786;9.166;2022-09-12T10:46:55;3.43;;;3.03;;
33381;SDS011;21342;48.786;9.166;2022-09-12T10:49:24;4.67;;;2.40;;
33381;SDS011;21342;48.786;9.166;2022-09-12T10:51:54;3.60;;;2.93;;
33381;SDS011;21342;48.786;9.166;2022-09-12T10:54:24;3.40;;;3.10;;
33381;SDS011;21342;48.786;9.166;2022-09-12T10:56:58;3.53;;;2.80;;
33381;SDS011;21342;48.786;9.166;2022-09-12T10:59:51;2.67;;;2.47;;
33381;SDS011;21342;48.786;9.166;2022-09-12T11:02:35;2.67;;;2.40;;
33381;SDS011;21342;48.786;9.166;2022-09-12T11:05:17;2.77;;;2.57;;
33381;SDS011;21342;48.786;9.166;2022-09-12T11:08:02;3.63;;;2.80;;
33381;SDS011;21342;48.786;9.166;2022-09-12T11:10:40;6.03;;;2.60;;
33381;SDS011;21342;48.786;9.166;2022-09-12T11:13:21;3.17;;;2.67;;
33381;SDS011;21342;48.786;9.166;2022-09-12T11:15:58;2.87;;;2.60;;
33381;SDS011;21342;48.786;9.166;2022-09-12T11:18:43;5.23;;;2.50;;
33381;SDS011;21342;48.786;9.166;2022-09-12T11:21:28;2.37;;;2.17;;
33381;SDS011;21342;48.786;9.166;2022-09-12T11:27:18;3.07;;;2.73;;
33381;SDS011;21342;48.786;9.166;2022-09-12T11:29:58;2.57;;;2.37;;
33381;SDS011;21342;48.786;9.166;2022-09-12T11:32:33;2.50;;;2.30;;
33381;SDS011;21342;48.786;9.166;2022-09-12T11:35:33;2.50;;;2.27;;
33381;SDS011;21342;48.786;9.166;2022-09-12T11:38:13;6.13;;;2.10;;
33381;SDS011;21342;48.786;9.166;2022-09-12T11:41:04;2.10;;;1.90;;
33381;SDS011;21342;48.786;9.166;2022-09-12T11:43:36;2.27;;;2.00;;
33381;SDS011;21342;48.786;9.166;2022-09-12T11:46:12;2.20;;;2.00;;
33381;SDS011;21342;48.786;9.166;2022-09-12T11:48:44;2.77;;;2.57;;
33381;SDS011;21342;48.786;9.166;2022-09-12T11:51:22;2.00;;;1.80;;
33381;SDS011;21342;48.786;9.166;2022-09-12T11:53:56;2.07;;;1.90;;
33381;SDS011;21342;48.786;9.166;2022-09-12T11:56:28;1.80;;;1.70;;
33381;SDS011;21342;48.786;9.166;2022-09-12T11:58:57;1.90;;;1.70;;
33381;SDS011;21342;48.786;9.166;2022-09-12T12:01:30;1.70;;;1.60;;
33381;SDS011;21342;48.786;9.166;2022-09-12T12:04:02;2.03;;;1.70;;
33381;SDS011;21342;48.786;9.166;2022-09-12T12:06:39;1.80;;;1.70;;
33381;SDS011;21342;48.786;9.166;2022-09-12T12:09:14;1.70;;;1.60;;
33381;SDS011;21342;48.786;9.166;2022-09-12T12:11:42;1.80;;;1.70;;
33381;SDS011;21342;48.786;9.166;2022-09-12T12:14:15;1.60;;;1.50;;
33381;SDS011;21342;48.786;9.166;2022-09-12T12:16:45;2.07;;;1.60;;
33381;SDS011;21342;48.786;9.166;2022-09-12T12:19:26;2.07;;;1.87;;
33381;SDS011;21342;48.786;9.166;2022-09-12T12:22:11;3.40;;;2.00;;
33381;SDS011;21342;48.786;9.166;2022-09-12T12:27:52;3.60;;;1.70;;
33381;SDS011;21342;48.786;9.166;2022-09-12T12:36:31;4.20;;;1.63;;
33381;SDS011;21342;48.786;9.166;2022-09-12T12:57:25;3.50;;;1.73;;
33381;SDS011;21342;48.786;9.166;2022-09-12T13:00:04;1.87;;;1.77;;
33381;SDS011;21342;48.786;9.166;2022-09-12T13:02:35;5.07;;;2.00;;
33381;SDS011;21342;48.786;9.166;2022-09-12T13:05:15;1.70;;;1.60;;
33381;SDS011;21342;48.786;9.166;2022-09-12T13:07:45;1.70;;;1.60;;
33381;SDS011;21342;48.786;9.166;2022-09-12T13:10:20;2.63;;;1.80;;
33381;SDS011;21342;48.786;9.166;2022-09-12T13:12:49;2.00;;;1.90;;
33381;SDS011;21342;48.786;9.166;2022-09-12T13:18:15;2.20;;;1.93;;
33381;SDS011;21342;48.786;9.166;2022-09-12T13:20:49;2.20;;;2.10;;
33381;SDS011;21342;48.786;9.166;2022-09-12T13:23:21;1.93;;;1.83;;
33381;SDS011;21342;48.786;9.166;2022-09-12T13:25:53;3.10;;;1.87;;
33381;SDS011;21342;48.786;9.166;2022-09-12T13:28:22;1.70;;;1.60;;
33381;SDS011;21342;48.786;9.166;2022-09-12T13:30:54;1.90;;;1.80;;
33381;SDS011;21342;48.786;9.166;2022-09-12T13:33:28;3.97;;;2.10;;
33381;SDS011;21342;48.786;9.166;2022-09-12T13:45:03;2.33;;;1.47;;
33381;SDS011;21342;48.786;9.166;2022-09-12T13:47:38;2.00;;;1.50;;
33381;SDS011;21342;48.786;9.166;2022-09-12T13:50:11;1.90;;;1.77;;
33381;SDS011;21342;48.786;9.166;2022-09-12T13:52:44;2.90;;;1.83;;
33381;SDS011;21342;48.786;9.166;2022-09-12T13:55:17;3.00;;;1.80;;
33381;SDS011;21342;48.786;9.166;2022-09-12T13:57:58;1.57;;;1.43;;
33381;SDS011;21342;48.786;9.166;2022-09-12T14:00:26;1.90;;;1.80;;
33381;SDS011;21342;48.786;9.166;2022-09-12T14:02:55;1.70;;;1.60;;
33381;SDS011;21342;48.786;9.166;2022-09-12T14:05:38;2.37;;;1.83;;
33381;SDS011;21342;48.786;9.166;2022-09-12T14:08:08;2.13;;;1.80;;
33381;SDS011;21342;48.786;9.166;2022-09-12T14:10:39;1.90;;;1.70;;
33381;SDS011;21342;48.786;9.166;2022-09-12T14:13:10;1.83;;;1.73;;
33381;SDS011;21342;48.786;9.166;2022-09-12T14:15:39;2.40;;;1.80;;
33381;SDS011;21342;48.786;9.166;2022-09-12T14:18:19;1.70;;;1.60;;
33381;SDS011;21342;48.786;9.166;2022-09-12T14:20:50;2.07;;;1.87;;
33381;SDS011;21342;48.786;9.166;2022-09-12T14:23:23;2.10;;;1.80;;
33381;SDS011;21342;48.786;9.166;2022-09-12T14:25:53;1.70;;;1.50;;
33381;SDS011;21342;48.786;9.166;2022-09-12T14:28:20;1.90;;;1.80;;
33381;SDS011;21342;48.786;9.166;2022-09-12T14:31:01;1.70;;;1.60;;
33381;SDS011;21342;48.786;9.166;2022-09-12T14:33:32;2.10;;;1.53;;
33381;SDS011;21342;48.786;9.166;2022-09-12T14:36:16;1.70;;;1.60;;
33381;SDS011;21342;48.786;9.166;2022-09-12T14:38:53;3.40;;;2.80;;
33381;SDS011;21342;48.786;9.166;2022-09-12T14:41:24;1.90;;;1.77;;
33381;SDS011;21342;48.786;9.166;2022-09-12T14:43:54;4.77;;;1.87;;
33381;SDS011;21342;48.786;9.166;2022-09-12T14:46:24;1.90;;;1.70;;
33381;SDS011;21342;48.786;9.166;2022-09-12T14:48:56;2.77;;;1.80;;
33381;SDS011;21342;48.786;9.166;2022-09-12T14:51:30;2.77;;;2.10;;
33381;SDS011;21342;48.786;9.166;2022-09-12T14:54:00;1.60;;;1.50;;
33381;SDS011;21342;48.786;9.166;2022-09-12T14:56:37;2.87;;;2.50;;
33381;SDS011;21342;48.786;9.166;2022-09-12T14:59:28;1.60;;;1.50;;
33381;SDS011;21342;48.786;9.166;2022-09-12T15:04:47;1.70;;;1.60;;
33381;SDS011;21342;48.786;9.166;2022-09-12T15:07:20;1.50;;;1.40;;
33381;SDS011;21342;48.786;9.166;2022-09-12T15:09:58;2.20;;;2.00;;
33381;SDS011;21342;48.786;9.166;2022-09-12T15:12:26;2.50;;;2.00;;
33381;SDS011;21342;48.786;9.166;2022-09-12T15:14:54;2.97;;;2.47;;
33381;SDS011;21342;48.786;9.166;2022-09-12T15:17:26;1.70;;;1.60;;
33381;SDS011;21342;48.786;9.166;2022-09-12T15:19:53;2.67;;;1.80;;
33381;SDS011;21342;48.786;9.166;2022-09-12T15:22:21;2.57;;;2.10;;
33381;SDS011;21342;48.786;9.166;2022-09-12T15:24:50;2.30;;;2.10;;
33381;SDS011;21342;48.786;9.166;2022-09-12T15:27:17;1.77;;;1.67;;
33381;SDS011;21342;48.786;9.166;2022-09-12T15:29:44;1.97;;;1.87;;
33381;SDS011;21342;48.786;9.166;2022-09-12T15:32:13;2.80;;;1.90;;
33381;SDS011;21342;48.786;9.166;2022-09-12T15:34:48;2.20;;;2.00;;
33381;SDS011;21342;48.786;9.166;2022-09-12T15:37:16;2.00;;;1.80;;
33381;SDS011;21342;48.786;9.166;2022-09-12T15:39:46;1.80;;;1.70;;
33381;SDS011;21342;48.786;9.166;2022-09-12T15:42:13;2.03;;;1.90;;
33381;SDS011;21342;48.786;9.166;2022-09-12T15:44:41;2.57;;;2.37;;
33381;SDS011;21342;48.786;9.166;2022-09-12T15:47:09;1.80;;;1.70;;
33381;SDS011;21342;48.786;9.166;2022-09-12T15:49:38;2.00;;;1.90;;
33381;SDS011;21342;48.786;9.166;2022-09-12T15:52:05;2.03;;;1.80;;
33381;SDS011;21342;48.786;9.166;2022-09-12T15:54:37;2.80;;;2.60;;
33381;SDS011;21342;48.786;9.166;2022-09-12T15:57:06;2.10;;;1.90;;
33381;SDS011;21342;48.786;9.166;2022-09-12T15:59:33;2.30;;;2.10;;